Time;durP1;ratioP1;P1;durP2;ratioP2;P2;SDS_P1;SDS_P2;PMS_P1;PMS_P2;Temp;Humidity;BMP_temperature;BMP_pressure;BME280_temperature;BME280_humidity;BME280_pressure;Samples;Min_cycle;Max_cycle;Signal;HPM_P1;HPM_P2
2022/12/12 00:00:42;;;;;;;44.40;24.23;;;0.40;99.90;;;;;;6249084;28;20423;-85
2022/12/12 00:03:45;;;;;;;37.35;21.15;;;0.50;99.90;;;;;;6250169;28;20044;-84
2022/12/12 00:06:47;;;;;;;39.38;21.65;;;0.40;99.90;;;;;;6249532;28;20060;-85
2022/12/12 00:09:49;;;;;;;40.07;19.60;;;0.30;99.90;;;;;;6249104;28;20049;-84
2022/12/12 00:12:51;;;;;;;33.53;21.20;;;0.30;99.90;;;;;;6249142;28;20610;-84
2022/12/12 00:15:52;;;;;;;40.07;22.57;;;0.30;99.90;;;;;;6248913;28;20045;-84
2022/12/12 00:18:55;;;;;;;42.43;24.27;;;0.40;99.90;;;;;;6248580;28;20049;-84
2022/12/12 00:21:57;;;;;;;44.00;24.77;;;0.40;99.90;;;;;;6249353;28;20418;-84
2022/12/12 00:24:59;;;;;;;43.05;24.73;;;0.40;99.90;;;;;;6248390;28;20406;-85
2022/12/12 00:28:01;;;;;;;40.60;21.33;;;0.50;99.90;;;;;;6248141;28;20045;-84
2022/12/12 00:31:03;;;;;;;49.73;22.90;;;0.50;99.90;;;;;;6248736;28;20061;-84
2022/12/12 00:34:06;;;;;;;38.70;22.00;;;0.50;99.90;;;;;;6248873;28;20495;-83
2022/12/12 00:37:07;;;;;;;44.20;23.90;;;0.50;99.90;;;;;;6248012;28;20053;-84
2022/12/12 00:40:11;;;;;;;40.93;23.03;;;0.50;99.90;;;;;;6248632;28;20045;-84
2022/12/12 00:43:12;;;;;;;45.67;25.03;;;0.50;99.90;;;;;;6249841;28;20042;-82
2022/12/12 00:46:16;;;;;;;41.10;22.83;;;0.50;99.90;;;;;;6251406;28;20506;-84
2022/12/12 00:49:19;;;;;;;36.20;22.27;;;0.50;99.90;;;;;;6250366;28;20050;-84
2022/12/12 00:52:20;;;;;;;35.97;22.13;;;0.50;99.90;;;;;;6249832;28;20046;-84
2022/12/12 00:55:22;;;;;;;48.13;24.70;;;0.50;99.90;;;;;;6251247;28;20495;-84
2022/12/12 00:58:24;;;;;;;37.13;20.87;;;0.50;99.90;;;;;;6252115;28;20060;-84
2022/12/12 01:01:28;;;;;;;34.47;21.15;;;0.50;99.90;;;;;;6252225;28;20041;-84
2022/12/12 01:04:32;;;;;;;31.97;19.60;;;0.50;99.90;;;;;;6253958;28;20039;-83
2022/12/12 01:07:33;;;;;;;35.27;19.67;;;0.50;99.90;;;;;;6252547;28;20050;-84
2022/12/12 01:10:35;;;;;;;40.97;22.57;;;0.50;99.90;;;;;;6261475;28;20037;-83
2022/12/12 01:13:37;;;;;;;31.03;18.47;;;0.50;99.90;;;;;;6257093;28;20403;-83
2022/12/12 01:16:39;;;;;;;32.73;21.00;;;0.50;99.90;;;;;;6251248;28;20388;-84
2022/12/12 01:19:42;;;;;;;39.77;21.17;;;0.50;99.90;;;;;;6249029;28;20067;-83
2022/12/12 01:22:44;;;;;;;37.67;21.03;;;0.50;99.90;;;;;;6250457;28;20049;-84
2022/12/12 01:25:46;;;;;;;36.10;21.47;;;0.50;99.90;;;;;;6249856;28;20050;-84
2022/12/12 01:28:48;;;;;;;35.83;19.27;;;0.30;99.90;;;;;;6248011;28;20058;-84
2022/12/12 01:31:49;;;;;;;38.83;22.33;;;0.20;99.90;;;;;;6250243;28;20053;-84
2022/12/12 01:34:52;;;;;;;35.43;20.17;;;0.10;99.90;;;;;;6250344;28;20045;-83
2022/12/12 01:37:54;;;;;;;37.33;20.90;;;-0.10;99.90;;;;;;6247075;28;20056;-84
2022/12/12 01:40:56;;;;;;;36.43;18.70;;;-0.20;99.90;;;;;;6248329;28;20423;-84
2022/12/12 01:44:01;;;;;;;34.50;19.17;;;-0.40;99.90;;;;;;6247829;28;20064;-84
2022/12/12 01:47:02;;;;;;;40.10;21.93;;;-0.50;99.90;;;;;;6247040;28;20045;-84
2022/12/12 01:50:09;;;;;;;35.37;20.37;;;-0.60;99.90;;;;;;6247880;28;20056;-85
2022/12/12 01:53:21;;;;;;;38.37;19.97;;;-0.70;99.90;;;;;;6250935;28;20050;-84
2022/12/12 01:56:23;;;;;;;40.13;23.60;;;-0.90;99.90;;;;;;6240368;28;20499;-84
2022/12/12 01:59:26;;;;;;;39.90;21.73;;;-1.00;99.90;;;;;;6250877;28;20495;-83
2022/12/12 02:06:08;;;;;;;39.93;20.60;;;-1.10;99.90;;;;;;6250423;28;20045;-84
2022/12/12 02:09:13;;;;;;;38.72;22.27;;;-1.30;99.90;;;;;;6251299;28;20049;-83
2022/12/12 02:12:15;;;;;;;42.60;21.70;;;-1.30;99.90;;;;;;6249866;28;20052;-84
2022/12/12 02:15:17;;;;;;;45.73;22.87;;;-1.40;99.90;;;;;;6250926;28;20042;-84
2022/12/12 02:18:25;;;;;;;36.10;22.00;;;-1.50;99.90;;;;;;6250489;28;20591;-83
2022/12/12 02:21:35;;;;;;;35.95;20.13;;;-1.60;99.90;;;;;;6249669;28;20056;-82
2022/12/12 02:25:08;;;;;;;37.13;21.00;;;-1.60;99.90;;;;;;6248903;28;20041;-83
2022/12/12 02:28:39;;;;;;;40.90;21.37;;;-1.70;99.90;;;;;;6248557;28;20052;-83
2022/12/12 02:31:48;;;;;;;41.83;21.80;;;-1.80;99.90;;;;;;6250685;28;20050;-84
2022/12/12 02:34:55;;;;;;;43.17;21.83;;;-1.90;99.90;;;;;;6263839;28;20038;-81
2022/12/12 02:38:03;;;;;;;46.40;24.97;;;-2.00;99.90;;;;;;6261273;28;20042;-84
2022/12/12 02:41:15;;;;;;;40.57;22.07;;;-2.00;99.90;;;;;;6256978;28;20053;-84
2022/12/12 02:44:25;;;;;;;40.83;23.17;;;-2.10;99.90;;;;;;6257852;28;20049;-84
2022/12/12 02:47:31;;;;;;;34.73;19.13;;;-2.10;99.90;;;;;;6257130;28;20044;-83
2022/12/12 02:50:35;;;;;;;44.83;22.10;;;-2.20;99.90;;;;;;6258820;28;20060;-84
2022/12/12 02:53:36;;;;;;;39.33;21.10;;;-2.30;99.90;;;;;;6257714;28;20426;-83
2022/12/12 02:56:48;;;;;;;39.97;19.77;;;-2.40;99.90;;;;;;6263951;22;20057;-82
2022/12/12 02:59:53;;;;;;;44.83;19.40;;;-2.40;99.90;;;;;;6254714;28;20049;-81
2022/12/12 03:10:13;;;;;;;;;;;-2.60;99.90;;;;;;6277309;28;20033;-82
2022/12/12 03:13:23;;;;;;;47.23;20.83;;;-2.60;99.90;;;;;;6272598;28;20302;-82
2022/12/12 03:16:28;;;;;;;37.83;20.13;;;-2.70;99.90;;;;;;6259995;28;20331;-82
2022/12/12 03:19:43;;;;;;;39.37;20.43;;;-2.70;99.90;;;;;;6260007;28;20056;-83
2022/12/12 03:22:50;;;;;;;40.77;21.00;;;-2.70;99.90;;;;;;6258453;28;20050;-83
2022/12/12 03:25:58;;;;;;;46.17;20.88;;;-2.80;99.90;;;;;;6262494;28;20045;-81
2022/12/12 03:29:06;;;;;;;41.53;22.57;;;-2.80;99.90;;;;;;6261506;28;20057;-82
2022/12/12 03:32:11;;;;;;;39.38;18.25;;;-2.80;99.90;;;;;;6259884;28;20052;-81
2022/12/12 03:35:19;;;;;;;39.83;20.43;;;-2.90;99.90;;;;;;6259459;28;20495;-81
2022/12/12 03:38:24;;;;;;;41.07;21.10;;;-2.80;99.90;;;;;;6259203;28;20053;-81
2022/12/12 03:41:31;;;;;;;44.43;23.33;;;-2.90;99.90;;;;;;6259832;28;20069;-81
2022/12/12 03:44:37;;;;;;;43.33;21.40;;;-3.00;99.90;;;;;;6259107;28;20041;-81
2022/12/12 03:47:47;;;;;;;37.90;18.97;;;-3.00;99.90;;;;;;6260200;28;20289;-80
2022/12/12 03:50:54;;;;;;;34.03;19.23;;;-3.00;99.90;;;;;;6259200;28;20053;-82
2022/12/12 03:54:01;;;;;;;33.25;17.73;;;-3.00;99.90;;;;;;6259886;28;20045;-81
2022/12/12 03:57:07;;;;;;;32.63;18.85;;;-3.10;99.90;;;;;;6258367;28;20587;-82
2022/12/12 04:00:13;;;;;;;36.93;17.07;;;-3.10;99.90;;;;;;6260018;28;20046;-82
2022/12/12 04:03:23;;;;;;;36.57;19.73;;;-3.10;99.90;;;;;;6259353;28;20038;-82
2022/12/12 04:06:33;;;;;;;31.70;18.83;;;-3.10;99.90;;;;;;6258817;28;20064;-81
2022/12/12 04:13:04;;;;;;;39.07;19.63;;;-3.20;99.90;;;;;;6255804;28;20045;-81
2022/12/12 04:16:10;;;;;;;30.40;17.37;;;-3.30;99.90;;;;;;6255440;28;20049;-81
2022/12/12 04:23:13;;;;;;;32.93;16.70;;;-3.30;99.90;;;;;;6253885;28;20049;-81
2022/12/12 04:29:40;;;;;;;30.60;17.37;;;-3.40;99.90;;;;;;6250149;28;20069;-82
2022/12/12 04:32:45;;;;;;;30.57;16.60;;;-3.40;99.90;;;;;;6251527;28;20056;-81
2022/12/12 04:35:50;;;;;;;28.40;14.97;;;-3.40;99.90;;;;;;6251175;28;20045;-82
2022/12/12 04:38:55;;;;;;;31.70;16.37;;;-3.40;99.90;;;;;;6251929;28;20057;-81
2022/12/12 04:42:00;;;;;;;44.10;17.97;;;-3.50;99.90;;;;;;6252097;28;20049;-82
2022/12/12 04:45:07;;;;;;;31.20;15.13;;;-3.50;99.90;;;;;;6251429;28;20061;-81
2022/12/12 04:48:13;;;;;;;33.92;16.92;;;-3.60;99.90;;;;;;6250660;28;20045;-82
2022/12/12 04:51:19;;;;;;;31.73;15.30;;;-3.60;99.90;;;;;;6252585;28;20524;-81
2022/12/12 04:54:28;;;;;;;25.53;13.17;;;-3.70;99.90;;;;;;6250995;28;20056;-82
2022/12/12 04:57:38;;;;;;;28.67;15.43;;;-3.70;99.90;;;;;;6249887;28;20099;-81
2022/12/12 05:00:47;;;;;;;27.93;13.90;;;-3.70;99.90;;;;;;6251562;28;20052;-81
2022/12/12 05:03:52;;;;;;;31.63;13.87;;;-3.70;99.90;;;;;;6251069;28;20045;-81
2022/12/12 05:06:59;;;;;;;27.23;14.57;;;-3.70;99.90;;;;;;6252052;28;20042;-81
2022/12/12 05:10:02;;;;;;;35.00;14.70;;;-3.70;99.90;;;;;;6253113;28;20061;-81
2022/12/12 05:13:04;;;;;;;29.77;17.20;;;-3.60;99.90;;;;;;6252934;28;20395;-81
2022/12/12 05:16:16;;;;;;;28.30;16.27;;;-3.60;99.90;;;;;;6252717;28;20398;-81
2022/12/12 05:19:18;;;;;;;33.37;15.97;;;-3.60;99.90;;;;;;6252838;28;20057;-81
2022/12/12 05:22:20;;;;;;;28.93;14.60;;;-3.60;99.90;;;;;;6252962;28;20056;-81
2022/12/12 05:25:23;;;;;;;22.23;14.73;;;-3.60;99.90;;;;;;6251674;28;20041;-81
2022/12/12 05:28:24;;;;;;;28.40;14.97;;;-3.60;99.90;;;;;;6253353;28;20080;-82
2022/12/12 05:31:26;;;;;;;29.63;16.67;;;-3.70;99.90;;;;;;6253366;28;20041;-82
2022/12/12 05:34:28;;;;;;;23.67;13.10;;;-3.70;99.90;;;;;;6254938;28;20083;-81
2022/12/12 05:37:31;;;;;;;26.67;12.80;;;-3.70;99.90;;;;;;6256011;28;20054;-82
2022/12/12 05:40:34;;;;;;;27.90;14.90;;;-3.90;99.90;;;;;;6257154;28;20053;-82
2022/12/12 05:43:36;;;;;;;21.13;13.23;;;-4.00;99.90;;;;;;6256574;28;20052;-81
2022/12/12 05:46:38;;;;;;;26.40;15.37;;;-4.00;99.90;;;;;;6254355;28;20041;-81
2022/12/12 05:49:40;;;;;;;26.90;13.17;;;-4.10;99.90;;;;;;6252384;28;20071;-81
2022/12/12 05:52:41;;;;;;;29.10;13.97;;;-4.20;99.90;;;;;;6255493;28;20139;-82
2022/12/12 05:55:45;;;;;;;18.47;12.10;;;-4.20;99.90;;;;;;6255975;28;20196;-80
2022/12/12 05:58:46;;;;;;;28.90;13.57;;;-4.30;99.90;;;;;;6251030;28;20499;-82
2022/12/12 06:01:48;;;;;;;21.33;13.63;;;-4.20;99.90;;;;;;6250851;28;20054;-81
2022/12/12 06:04:50;;;;;;;26.53;13.57;;;-4.30;99.90;;;;;;6249722;28;20045;-81
2022/12/12 06:07:51;;;;;;;36.77;18.27;;;-4.30;99.90;;;;;;6255712;28;20045;-82
2022/12/12 06:10:55;;;;;;;34.80;16.27;;;-4.40;99.90;;;;;;6256095;28;20055;-82
2022/12/12 06:13:56;;;;;;;31.17;14.27;;;-4.40;99.90;;;;;;6257210;28;20053;-82
2022/12/12 06:16:58;;;;;;;33.63;18.03;;;-4.30;99.90;;;;;;6256688;28;20133;-82
2022/12/12 06:20:00;;;;;;;26.77;15.47;;;-4.30;99.90;;;;;;6257246;28;20046;-82
2022/12/12 06:23:02;;;;;;;37.23;17.10;;;-4.20;99.90;;;;;;6257491;28;20045;-82
2022/12/12 06:26:06;;;;;;;23.50;13.67;;;-4.10;99.90;;;;;;6258045;28;20051;-81
2022/12/12 06:29:08;;;;;;;24.93;13.80;;;-4.00;99.90;;;;;;6257269;28;20096;-81
2022/12/12 06:32:10;;;;;;;27.40;13.77;;;-3.90;99.90;;;;;;6260075;28;20049;-81
2022/12/12 06:35:12;;;;;;;28.80;13.03;;;-3.80;99.90;;;;;;6259207;28;20621;-81
2022/12/12 06:38:13;;;;;;;45.57;15.33;;;-3.70;99.90;;;;;;6259252;28;20054;-82
2022/12/12 06:41:17;;;;;;;26.47;12.80;;;-3.60;99.90;;;;;;6258992;28;20095;-83
2022/12/12 06:44:19;;;;;;;29.17;13.97;;;-3.50;99.90;;;;;;6258913;28;20056;-82
2022/12/12 06:47:20;;;;;;;23.90;12.20;;;-3.50;99.90;;;;;;6259304;28;20054;-82
2022/12/12 06:50:22;;;;;;;20.83;11.13;;;-3.40;99.90;;;;;;6260018;28;20138;-81
2022/12/12 06:53:24;;;;;;;26.70;13.03;;;-3.40;99.90;;;;;;6258808;28;20511;-80
2022/12/12 06:56:27;;;;;;;19.00;9.53;;;-3.30;99.90;;;;;;6257389;28;20055;-81
2022/12/12 06:59:29;;;;;;;24.67;12.43;;;-3.20;99.90;;;;;;6258193;28;20042;-81
2022/12/12 07:02:30;;;;;;;16.17;10.57;;;-3.10;99.90;;;;;;6259083;28;20060;-81
2022/12/12 07:05:33;;;;;;;25.83;13.60;;;-3.10;99.90;;;;;;6267405;28;20049;-80
2022/12/12 07:08:35;;;;;;;20.63;12.03;;;-3.00;99.90;;;;;;6279594;28;20073;-80
2022/12/12 07:11:39;;;;;;;19.50;11.53;;;-2.90;99.90;;;;;;6267871;28;20055;-81
2022/12/12 07:14:41;;;;;;;28.77;13.23;;;-2.80;99.90;;;;;;6258255;28;20410;-81
2022/12/12 07:17:42;;;;;;;25.03;13.83;;;-2.70;99.90;;;;;;6258542;28;20055;-81
2022/12/12 07:20:46;;;;;;;22.17;12.63;;;-2.70;99.90;;;;;;6257731;28;20065;-81
2022/12/12 07:23:48;;;;;;;27.13;13.10;;;-2.60;99.90;;;;;;6257768;28;20041;-82
2022/12/12 07:26:51;;;;;;;22.30;10.93;;;-2.60;99.90;;;;;;6257294;28;20041;-81
2022/12/12 07:29:53;;;;;;;19.97;12.37;;;-2.50;99.90;;;;;;6258966;28;20160;-81
2022/12/12 07:32:54;;;;;;;16.77;11.10;;;-2.40;99.90;;;;;;6255803;28;20053;-81
2022/12/12 07:35:58;;;;;;;21.30;11.73;;;-2.40;99.90;;;;;;6254217;28;20049;-81
2022/12/12 07:39:00;;;;;;;28.60;14.23;;;-2.30;99.90;;;;;;6254866;28;20503;-82
2022/12/12 07:42:03;;;;;;;26.63;13.67;;;-2.30;99.90;;;;;;6255649;28;20058;-81
2022/12/12 07:45:06;;;;;;;26.90;11.90;;;-2.30;99.90;;;;;;6254884;28;20043;-81
2022/12/12 07:48:08;;;;;;;20.47;12.27;;;-2.30;99.90;;;;;;6254267;28;20068;-82
2022/12/12 07:51:09;;;;;;;29.10;17.27;;;-2.30;99.90;;;;;;6254846;28;20057;-81
2022/12/12 07:54:11;;;;;;;24.83;11.53;;;-2.20;99.90;;;;;;6256158;28;20064;-80
2022/12/12 07:57:14;;;;;;;22.17;13.33;;;-2.20;99.90;;;;;;6254367;28;20045;-81
2022/12/12 08:00:17;;;;;;;26.77;14.53;;;-2.20;99.90;;;;;;6254872;28;20046;-81
2022/12/12 08:03:19;;;;;;;23.87;12.40;;;-2.10;99.90;;;;;;6255607;28;20507;-81
2022/12/12 08:06:22;;;;;;;19.50;12.13;;;-2.00;99.90;;;;;;6255139;28;20050;-82
2022/12/12 08:09:25;;;;;;;24.00;13.83;;;-1.90;99.90;;;;;;6255461;28;20422;-82
2022/12/12 08:12:30;;;;;;;22.13;13.37;;;-1.90;99.90;;;;;;6261280;28;20068;-81
2022/12/12 08:15:32;;;;;;;26.80;14.53;;;-1.90;99.90;;;;;;6237949;28;20053;-83
2022/12/12 08:21:51;;;;;;;24.10;15.73;;;-1.70;99.90;;;;;;6256276;28;20387;-82
2022/12/12 08:24:52;;;;;;;29.20;16.27;;;-1.70;99.90;;;;;;6254776;28;20041;-82
2022/12/12 08:27:55;;;;;;;28.37;15.60;;;-1.70;99.90;;;;;;6252381;28;20053;-81
2022/12/12 08:30:57;;;;;;;27.87;15.20;;;-1.70;99.90;;;;;;6251818;28;20049;-82
2022/12/12 08:34:00;;;;;;;26.10;13.97;;;-1.60;99.90;;;;;;6253517;28;20058;-82
2022/12/12 08:37:02;;;;;;;26.17;14.60;;;-1.50;99.90;;;;;;6233072;28;20057;-82
2022/12/12 08:40:04;;;;;;;26.93;16.23;;;-1.50;99.90;;;;;;6227999;28;20565;-82
2022/12/12 08:43:08;;;;;;;28.00;17.73;;;-1.50;99.90;;;;;;6228622;28;20068;-80
2022/12/12 08:46:11;;;;;;;26.57;15.47;;;-1.40;99.90;;;;;;6229674;28;20049;-80
2022/12/12 08:49:13;;;;;;;27.43;15.33;;;-1.30;99.90;;;;;;6228726;28;20042;-80
2022/12/12 08:52:14;;;;;;;28.40;16.73;;;-1.20;99.90;;;;;;6228991;28;20428;-80
2022/12/12 08:55:16;;;;;;;28.03;17.63;;;-1.20;99.90;;;;;;6228432;28;20042;-80
2022/12/12 08:58:19;;;;;;;30.60;16.93;;;-1.10;99.90;;;;;;6255096;22;20046;-79
2022/12/12 09:01:23;;;;;;;28.63;16.37;;;-1.00;99.90;;;;;;6233535;28;20057;-79
2022/12/12 09:04:25;;;;;;;33.93;18.13;;;-1.00;99.90;;;;;;6227227;28;20455;-79
2022/12/12 09:07:27;;;;;;;25.73;16.37;;;-0.90;99.90;;;;;;6230700;28;20042;-81
2022/12/12 09:10:29;;;;;;;32.30;19.10;;;-0.80;99.90;;;;;;6226913;28;20046;-81
2022/12/12 09:13:32;;;;;;;34.20;20.47;;;-0.70;99.90;;;;;;6226664;28;20057;-81
2022/12/12 09:16:34;;;;;;;31.80;19.03;;;-0.60;99.90;;;;;;6225921;28;20041;-82
2022/12/12 09:19:35;;;;;;;30.40;18.40;;;-0.40;99.90;;;;;;6228234;28;20434;-81
2022/12/12 09:22:37;;;;;;;34.20;20.43;;;-0.40;99.90;;;;;;6225258;28;20046;-81
2022/12/12 09:25:39;;;;;;;30.00;18.57;;;-0.30;99.90;;;;;;6225287;28;20042;-81
2022/12/12 09:28:42;;;;;;;32.97;18.10;;;-0.30;99.90;;;;;;6224368;28;20057;-81
2022/12/12 09:31:43;;;;;;;35.70;22.27;;;-0.30;99.90;;;;;;6233034;28;20149;-80
2022/12/12 09:34:45;;;;;;;40.93;19.63;;;-0.30;99.90;;;;;;6236256;28;20060;-82
2022/12/12 09:37:47;;;;;;;34.07;18.90;;;-0.20;99.90;;;;;;6224887;28;20493;-78
2022/12/12 09:40:54;;;;;;;40.30;21.70;;;-0.10;99.90;;;;;;6230962;28;20527;-77
2022/12/12 09:44:02;;;;;;;37.97;21.83;;;-0.10;99.90;;;;;;6236765;28;20053;-79
2022/12/12 09:47:11;;;;;;;31.88;20.42;;;-0.10;99.90;;;;;;6231538;28;20495;-77
2022/12/12 09:50:21;;;;;;;41.17;21.37;;;0.00;99.90;;;;;;6258504;28;20049;-79
2022/12/12 09:53:24;;;;;;;37.60;22.53;;;0.10;99.90;;;;;;6260564;28;20045;-78
2022/12/12 09:56:36;;;;;;;39.27;23.70;;;0.10;99.90;;;;;;6259532;28;20056;-81
2022/12/12 09:59:44;;;;;;;40.13;23.23;;;0.10;99.90;;;;;;6260361;28;20520;-80
2022/12/12 10:02:51;;;;;;;;;;;0.20;99.90;;;;;;6255640;28;20064;-80
2022/12/12 10:05:58;;;;;;;47.50;24.30;;;0.30;99.90;;;;;;6254483;28;20396;-79
2022/12/12 10:09:20;;;;;;;39.77;24.37;;;0.30;99.90;;;;;;6253783;28;20045;-79
2022/12/12 10:12:23;;;;;;;39.95;24.77;;;0.30;99.90;;;;;;6254419;28;20299;-79
2022/12/12 10:15:33;;;;;;;44.88;23.50;;;0.30;99.90;;;;;;6256278;28;20078;-79
2022/12/12 10:18:39;;;;;;;44.28;23.70;;;0.30;99.90;;;;;;6255403;28;20054;-78
2022/12/12 10:21:41;;;;;;;43.90;22.35;;;0.40;99.90;;;;;;6254290;28;20064;-78
2022/12/12 10:24:48;;;;;;;43.45;22.73;;;0.40;99.90;;;;;;6253763;28;20049;-79
2022/12/12 10:27:51;;;;;;;39.42;22.88;;;0.50;99.90;;;;;;6255882;28;20414;-79
2022/12/12 10:31:14;;;;;;;41.35;22.83;;;0.50;99.90;;;;;;6253438;28;20514;-77
2022/12/12 10:34:26;;;;;;;44.30;23.67;;;0.70;99.90;;;;;;6253465;28;20158;-78
2022/12/12 10:37:39;;;;;;;35.45;20.58;;;0.80;99.90;;;;;;6252455;28;20037;-78
2022/12/12 10:40:50;;;;;;;48.08;23.52;;;0.80;99.90;;;;;;6256984;28;20045;-80
2022/12/12 10:44:00;;;;;;;40.15;22.50;;;0.70;99.90;;;;;;6257386;28;20053;-78
2022/12/12 10:47:06;;;;;;;36.28;20.00;;;0.70;99.90;;;;;;6257330;28;20049;-78
2022/12/12 10:50:23;;;;;;;34.97;21.75;;;0.70;99.90;;;;;;6258150;28;20065;-80
2022/12/12 10:53:24;;;;;;;39.92;22.60;;;0.80;99.90;;;;;;6257522;28;20042;-79
2022/12/12 10:56:28;;;;;;;37.38;21.17;;;0.90;99.90;;;;;;6259066;28;20045;-79
2022/12/12 10:59:30;;;;;;;41.35;22.20;;;0.90;99.90;;;;;;6258387;28;20052;-80
2022/12/12 11:02:40;;;;;;;38.65;22.27;;;0.90;99.90;;;;;;6259789;28;20060;-78
2022/12/12 11:05:42;;;;;;;44.15;23.27;;;0.90;99.90;;;;;;6260372;28;20045;-80
2022/12/12 11:08:54;;;;;;;38.60;20.80;;;0.90;99.90;;;;;;6259329;28;20406;-80
2022/12/12 11:12:01;;;;;;;33.85;20.30;;;1.20;99.90;;;;;;6258965;28;20050;-78
2022/12/12 11:15:06;;;;;;;40.05;20.75;;;1.50;99.90;;;;;;6259356;28;20038;-81
2022/12/12 11:18:14;;;;;;;31.88;20.48;;;1.90;99.90;;;;;;6259859;28;20411;-80
2022/12/12 11:21:20;;;;;;;32.70;18.83;;;2.20;99.90;;;;;;6260161;28;20045;-81
2022/12/12 11:24:29;;;;;;;37.65;20.77;;;2.40;99.90;;;;;;6259600;28;20060;-80
2022/12/12 11:27:34;;;;;;;42.53;23.95;;;2.20;99.90;;;;;;6259421;28;20041;-79
2022/12/12 11:30:39;;;;;;;38.28;20.20;;;2.60;99.90;;;;;;6261313;28;20053;-80
2022/12/12 11:33:48;;;;;;;36.67;19.70;;;2.80;99.90;;;;;;6262471;28;20049;-81
2022/12/12 11:36:50;;;;;;;30.42;18.52;;;3.10;99.90;;;;;;6261868;28;20041;-80
2022/12/12 11:39:54;;;;;;;31.10;19.23;;;3.30;99.90;;;;;;6261603;28;20063;-80
2022/12/12 11:43:08;;;;;;;34.28;20.20;;;3.40;99.90;;;;;;6262519;28;20049;-82
2022/12/12 11:46:17;;;;;;;34.40;19.52;;;3.60;99.90;;;;;;6261960;28;20045;-83
2022/12/12 11:49:20;;;;;;;32.33;19.95;;;4.10;99.90;;;;;;6258488;28;20049;-79
2022/12/12 11:52:24;;;;;;;32.05;19.52;;;4.40;99.90;;;;;;6257459;28;20049;-80
2022/12/12 11:55:36;;;;;;;29.95;19.20;;;4.50;99.90;;;;;;6257730;28;20065;-81
2022/12/12 11:58:45;;;;;;;32.22;18.88;;;4.50;99.90;;;;;;6256512;28;20125;-79
2022/12/12 12:01:56;;;;;;;29.50;19.95;;;4.60;99.90;;;;;;6257486;28;20049;-80
2022/12/12 12:05:12;;;;;;;32.35;20.98;;;4.70;99.90;;;;;;6256205;28;20049;-81
2022/12/12 12:08:29;;;;;;;27.08;18.75;;;4.60;99.90;;;;;;6258269;28;20431;-79
2022/12/12 12:11:39;;;;;;;31.67;19.63;;;4.50;99.90;;;;;;6263080;28;20046;-78
2022/12/12 12:14:58;;;;;;;27.88;17.88;;;4.60;99.90;;;;;;6259596;28;20499;-81
2022/12/12 12:18:21;;;;;;;30.95;21.02;;;4.90;99.90;;;;;;6259250;28;20046;-81
2022/12/12 12:21:37;;;;;;;33.03;21.38;;;5.40;99.90;;;;;;6257931;28;20107;-80
2022/12/12 12:25:19;;;;;;;26.98;19.27;;;6.00;99.90;;;;;;6257012;28;20071;-80
2022/12/12 12:28:46;;;;;;;29.05;18.25;;;6.60;99.90;;;;;;6250489;28;20041;-82
2022/12/12 12:31:58;;;;;;;26.75;18.65;;;7.00;99.90;;;;;;6257416;28;20049;-79
2022/12/12 12:35:15;;;;;;;27.80;19.48;;;7.20;99.90;;;;;;6257157;28;20068;-79
2022/12/12 12:38:26;;;;;;;27.05;17.08;;;7.60;99.90;;;;;;6255994;28;20045;-79
2022/12/12 12:41:42;;;;;;;32.30;18.10;;;7.80;99.90;;;;;;6256164;28;20050;-79
2022/12/12 12:44:49;;;;;;;27.60;19.90;;;7.90;99.90;;;;;;6256694;28;20052;-80
2022/12/12 12:47:56;;;;;;;57.60;38.15;;;8.20;99.90;;;;;;6256187;28;20111;-80
2022/12/12 12:51:04;;;;;;;30.17;21.73;;;8.50;99.80;;;;;;6256667;28;20064;-80
2022/12/12 12:54:13;;;;;;;;;;;8.60;99.30;;;;;;6257156;28;20068;-80
2022/12/12 12:57:19;;;;;;;24.20;18.17;;;8.90;99.10;;;;;;6255692;28;20370;-80
2022/12/12 13:00:26;;;;;;;26.73;18.45;;;9.10;98.70;;;;;;6256244;28;20042;-78
2022/12/12 13:03:35;;;;;;;24.83;17.58;;;9.10;97.60;;;;;;6256882;28;20053;-81
2022/12/12 13:06:45;;;;;;;27.15;19.65;;;9.00;97.10;;;;;;6256010;28;20045;-80
2022/12/12 13:09:57;;;;;;;30.75;19.05;;;8.90;96.70;;;;;;6247555;28;20520;-78
2022/12/12 13:13:06;;;;;;;26.17;17.25;;;8.70;95.90;;;;;;6253439;28;20056;-82
2022/12/12 13:16:12;;;;;;;29.52;18.33;;;8.30;96.10;;;;;;6260055;28;20056;-80
2022/12/12 13:19:21;;;;;;;26.85;17.88;;;8.20;95.80;;;;;;6257708;28;20045;-79
2022/12/12 13:22:30;;;;;;;28.65;19.50;;;8.10;95.70;;;;;;6257686;28;20056;-80
2022/12/12 13:25:38;;;;;;;27.48;18.73;;;7.90;95.10;;;;;;6258264;28;20056;-81
2022/12/12 13:28:45;;;;;;;27.23;19.58;;;7.60;95.10;;;;;;6248564;28;20053;-80
2022/12/12 13:32:09;;;;;;;26.33;17.33;;;7.40;95.00;;;;;;6251394;28;20045;-78
2022/12/12 13:35:15;;;;;;;33.38;21.42;;;7.30;95.00;;;;;;6252646;28;20050;-81
2022/12/12 13:38:20;;;;;;;29.25;19.63;;;7.20;94.60;;;;;;6257020;28;20057;-81
2022/12/12 13:41:23;;;;;;;26.02;17.23;;;6.80;94.50;;;;;;6252861;28;20491;-80
2022/12/12 13:44:40;;;;;;;26.42;17.63;;;6.80;94.70;;;;;;6249772;28;20060;-78
2022/12/12 13:48:01;;;;;;;24.25;16.20;;;6.60;94.20;;;;;;6253901;28;20107;-86
2022/12/12 13:51:33;;;;;;;26.58;17.33;;;6.20;94.40;;;;;;6251959;28;20045;-80
2022/12/12 13:54:44;;;;;;;27.60;18.30;;;6.00;94.80;;;;;;6250195;28;20053;-79
2022/12/12 13:58:34;;;;;;;27.63;16.42;;;6.30;95.00;;;;;;6252419;28;20056;-80
2022/12/12 14:01:39;;;;;;;66.00;38.85;;;6.60;94.60;;;;;;6245505;28;20060;-77
2022/12/12 14:04:42;;;;;;;27.60;18.13;;;6.90;94.60;;;;;;6246541;28;20525;-78
2022/12/12 14:07:49;;;;;;;28.08;17.33;;;7.00;94.00;;;;;;6243870;28;20084;-79
2022/12/12 14:10:55;;;;;;;27.63;18.90;;;7.00;93.90;;;;;;6249398;28;20426;-82
2022/12/12 14:14:19;;;;;;;24.13;15.55;;;7.10;93.80;;;;;;6248889;28;20045;-81
2022/12/12 14:17:22;;;;;;;27.33;17.77;;;7.00;94.10;;;;;;6245108;28;20049;-79
2022/12/12 14:20:31;;;;;;;28.75;19.20;;;6.50;93.80;;;;;;6246700;28;20052;-80
2022/12/12 14:23:35;;;;;;;28.45;16.50;;;6.20;94.00;;;;;;6245081;28;20045;-79
2022/12/12 14:26:50;;;;;;;25.15;15.25;;;5.80;94.20;;;;;;6257611;28;20045;-79
2022/12/12 14:29:53;;;;;;;27.45;17.63;;;5.40;94.40;;;;;;6259933;28;20056;-83
2022/12/12 14:33:03;;;;;;;30.35;16.75;;;5.10;94.50;;;;;;6262875;28;20060;-79
2022/12/12 14:36:22;;;;;;;26.45;17.35;;;4.70;94.60;;;;;;6262589;28;20498;-82
2022/12/12 14:39:35;;;;;;;27.60;19.58;;;4.40;94.70;;;;;;6257917;28;20037;-80
2022/12/12 14:42:48;;;;;;;31.17;20.70;;;4.00;95.00;;;;;;6255803;28;20353;-79
2022/12/12 14:45:56;;;;;;;30.95;18.88;;;3.80;95.20;;;;;;6257040;28;20651;-81
2022/12/12 14:49:02;;;;;;;32.53;19.35;;;3.50;95.50;;;;;;6256297;28;20054;-80
2022/12/12 14:52:04;;;;;;;35.03;18.80;;;3.30;95.80;;;;;;6256873;28;20049;-80
2022/12/12 14:55:07;;;;;;;31.02;19.23;;;3.10;96.00;;;;;;6258645;28;20060;-81
2022/12/12 14:58:08;;;;;;;29.27;17.35;;;2.80;96.20;;;;;;6259809;22;20192;-84
2022/12/12 15:01:12;;;;;;;26.45;16.92;;;2.60;96.40;;;;;;6207026;28;20050;-83
2022/12/12 15:04:18;;;;;;;32.40;19.67;;;2.40;96.70;;;;;;6202500;28;20527;-83
2022/12/12 15:07:25;;;;;;;38.50;19.88;;;2.20;96.90;;;;;;6202177;28;20427;-84
2022/12/12 15:10:29;;;;;;;42.38;21.95;;;1.90;97.10;;;;;;6201724;28;20093;-83
2022/12/12 15:13:31;;;;;;;44.70;22.00;;;1.70;97.30;;;;;;6200182;28;20050;-86
2022/12/12 15:16:40;;;;;;;33.17;19.23;;;1.50;97.40;;;;;;6201592;28;20046;-85
2022/12/12 15:19:44;;;;;;;35.47;19.15;;;1.30;97.60;;;;;;6200376;28;20049;-84
2022/12/12 15:22:52;;;;;;;26.33;17.88;;;1.10;97.80;;;;;;6201727;28;20054;-85
2022/12/12 15:25:55;;;;;;;29.88;19.08;;;0.90;98.10;;;;;;6202831;28;20050;-84
2022/12/12 15:28:57;;;;;;;35.95;19.02;;;0.70;98.30;;;;;;6202409;28;20054;-85
2022/12/12 15:32:03;;;;;;;38.33;20.45;;;0.60;98.50;;;;;;6201754;28;20038;-85
2022/12/12 15:35:19;;;;;;;28.00;17.90;;;0.40;98.70;;;;;;6206406;28;20049;-84
2022/12/12 15:38:21;;;;;;;36.75;24.63;;;0.20;99.00;;;;;;6202335;28;20042;-84
2022/12/12 15:41:23;;;;;;;35.53;20.90;;;0.10;99.20;;;;;;6203805;28;20050;-84
2022/12/12 15:44:26;;;;;;;30.50;18.27;;;-0.10;99.30;;;;;;6202822;28;20051;-83
2022/12/12 15:47:29;;;;;;;41.60;22.93;;;-0.20;99.50;;;;;;6201504;28;20393;-83
2022/12/12 15:50:52;;;;;;;38.27;22.83;;;-0.30;99.70;;;;;;6204537;28;20069;-84
2022/12/12 15:53:55;;;;;;;38.00;19.63;;;-0.40;99.90;;;;;;6204527;28;20089;-83
2022/12/12 15:56:56;;;;;;;42.80;22.67;;;-0.50;99.90;;;;;;6203238;28;20042;-82
2022/12/12 16:00:02;;;;;;;33.10;19.70;;;-0.60;99.90;;;;;;6201337;28;20100;-86
2022/12/12 16:03:22;;;;;;;41.47;24.00;;;-0.70;99.90;;;;;;6203983;28;20402;-85
2022/12/12 16:06:25;;;;;;;38.90;21.03;;;-0.80;99.90;;;;;;6205172;28;20054;-85
2022/12/12 16:09:27;;;;;;;40.50;22.37;;;-0.80;99.90;;;;;;6203230;28;20046;-86
2022/12/12 16:12:54;;;;;;;33.57;21.13;;;-0.90;99.90;;;;;;6204697;28;20042;-83
2022/12/12 16:15:55;;;;;;;39.20;20.43;;;-1.00;99.90;;;;;;6202446;28;20068;-83